createdAt,value
2023-05-02T00:02:44.396Z,3.03
2023-05-02T00:05:36.527Z,3.10
2023-05-02T00:08:26.181Z,3.43
2023-05-02T00:11:18.071Z,3.37
2023-05-02T00:14:07.967Z,3.17
2023-05-02T00:16:57.746Z,3.17
2023-05-02T00:19:47.290Z,3.00
2023-05-02T00:22:38.265Z,3.10
2023-05-02T00:25:27.905Z,3.10
2023-05-02T00:28:18.008Z,2.90
2023-05-02T00:31:08.703Z,3.07
2023-05-02T00:33:58.857Z,3.10
2023-05-02T00:36:49.841Z,3.50
2023-05-02T00:39:41.268Z,3.13
2023-05-02T00:42:56.663Z,2.87
2023-05-02T00:45:53.077Z,3.60
2023-05-02T00:48:44.488Z,3.07
2023-05-02T00:51:37.839Z,3.17
2023-05-02T00:54:27.504Z,3.20
2023-05-02T00:57:19.364Z,3.30
2023-05-02T01:00:11.115Z,3.10
2023-05-02T01:03:07.864Z,3.30
2023-05-02T01:06:09.314Z,3.00
2023-05-02T01:09:07.957Z,3.20
2023-05-02T01:12:05.339Z,3.50
2023-05-02T01:14:57.844Z,3.20
2023-05-02T01:17:49.057Z,3.10
2023-05-02T01:20:42.261Z,3.70
2023-05-02T01:23:40.781Z,2.97
2023-05-02T01:26:38.413Z,3.50
2023-05-02T01:29:31.697Z,3.20
2023-05-02T01:32:25.598Z,3.60
2023-05-02T01:35:20.007Z,3.07
2023-05-02T01:38:10.215Z,3.00
2023-05-02T01:41:04.079Z,3.50
2023-05-02T01:43:54.269Z,3.03
2023-05-02T01:46:46.748Z,3.17
2023-05-02T01:49:37.695Z,3.10
2023-05-02T01:52:28.984Z,3.63
2023-05-02T01:55:19.635Z,3.03
2023-05-02T01:58:10.056Z,3.10
2023-05-02T02:01:01.763Z,3.17
2023-05-02T02:03:53.227Z,2.97
2023-05-02T02:06:46.345Z,3.30
2023-05-02T02:09:36.352Z,3.13
2023-05-02T02:12:30.819Z,2.77
2023-05-02T02:15:29.420Z,2.80
2023-05-02T02:18:23.687Z,3.37
2023-05-02T02:21:20.954Z,2.90
2023-05-02T02:24:11.750Z,3.20
2023-05-02T02:27:01.713Z,3.10
2023-05-02T02:29:51.401Z,3.53
2023-05-02T02:32:41.556Z,3.40
2023-05-02T02:35:37.732Z,3.40
2023-05-02T02:38:37.864Z,3.13
2023-05-02T02:41:32.907Z,3.53
2023-05-02T02:44:46.546Z,3.20
2023-05-02T02:47:47.078Z,3.30
2023-05-02T02:50:48.789Z,3.17
2023-05-02T02:53:53.975Z,3.60
2023-05-02T02:56:48.038Z,3.80
2023-05-02T02:59:43.296Z,3.20
2023-05-02T03:02:35.442Z,3.30
2023-05-02T03:05:25.464Z,3.50
2023-05-02T03:08:15.435Z,3.80
2023-05-02T03:11:06.323Z,3.10
2023-05-02T03:13:55.780Z,3.30
2023-05-02T03:16:45.629Z,3.20
2023-05-02T03:19:35.420Z,3.43
2023-05-02T03:22:25.055Z,3.83
2023-05-02T03:25:14.614Z,3.00
2023-05-02T03:28:05.681Z,3.30
2023-05-02T03:30:55.846Z,3.33
2023-05-02T03:33:45.289Z,3.37
2023-05-02T03:36:34.939Z,3.70
2023-05-02T03:39:37.460Z,3.10
2023-05-02T03:42:27.069Z,3.20
2023-05-02T03:45:19.197Z,3.20
2023-05-02T03:48:08.990Z,3.17
2023-05-02T03:50:59.258Z,3.57
2023-05-02T03:53:49.947Z,3.27
2023-05-02T03:56:42.663Z,3.10
2023-05-02T03:59:42.184Z,3.90
2023-05-02T04:02:39.850Z,3.20
2023-05-02T04:05:32.402Z,3.13
2023-05-02T04:08:21.908Z,3.43
2023-05-02T04:11:15.180Z,3.30
2023-05-02T04:14:04.780Z,3.70
2023-05-02T04:16:54.950Z,3.20
2023-05-02T04:19:48.019Z,3.40
2023-05-02T04:22:41.935Z,3.13
2023-05-02T04:25:31.938Z,3.60
2023-05-02T04:28:22.988Z,3.50
2023-05-02T04:31:13.903Z,3.33
2023-05-02T04:34:05.183Z,3.60
2023-05-02T04:36:56.334Z,3.60
2023-05-02T04:39:46.101Z,3.27
2023-05-02T04:42:39.247Z,3.67
2023-05-02T04:45:36.222Z,3.37
2023-05-02T04:48:26.016Z,3.50
2023-05-02T04:51:17.058Z,3.60
2023-05-02T04:54:09.511Z,3.43
2023-05-02T04:56:59.881Z,3.37
2023-05-02T04:59:51.618Z,3.43
2023-05-02T05:02:41.204Z,3.30
2023-05-02T05:05:30.898Z,3.70
2023-05-02T05:08:20.621Z,3.33
2023-05-02T05:11:14.968Z,3.87
2023-05-02T05:14:04.866Z,3.60
2023-05-02T05:16:54.620Z,3.30
2023-05-02T05:19:44.616Z,3.40
2023-05-02T05:22:33.936Z,3.53
2023-05-02T05:25:23.821Z,3.43
2023-05-02T05:28:16.032Z,3.60
2023-05-02T05:31:08.684Z,3.30
2023-05-02T05:33:58.576Z,3.50
2023-05-02T05:36:48.570Z,3.40
2023-05-02T05:39:38.408Z,3.93
2023-05-02T05:42:27.959Z,3.23
2023-05-02T05:45:20.065Z,3.40
2023-05-02T05:48:13.344Z,3.43
2023-05-02T05:55:49.758Z,3.60
2023-05-02T05:58:40.021Z,3.70
2023-05-02T06:01:32.494Z,3.57
2023-05-02T06:04:22.625Z,3.53
2023-05-02T06:07:12.418Z,3.60
2023-05-02T06:10:02.426Z,4.07
2023-05-02T06:12:52.678Z,3.60
2023-05-02T06:15:42.334Z,3.40
2023-05-02T06:18:34.256Z,3.70
2023-05-02T06:21:23.818Z,3.67
2023-05-02T06:24:13.330Z,3.73
2023-05-02T06:27:02.861Z,3.70
2023-05-02T06:30:22.710Z,3.60
2023-05-02T06:33:12.816Z,3.63
2023-05-02T06:36:10.889Z,3.20
2023-05-02T06:39:03.417Z,3.53
2023-05-02T06:41:53.931Z,3.30
2023-05-02T06:44:43.879Z,3.77
2023-05-02T06:48:46.105Z,3.60
2023-05-02T06:50:58.384Z,3.67
2023-05-02T06:53:50.119Z,3.07
2023-05-02T06:56:53.299Z,3.63
2023-05-02T06:59:45.957Z,3.50
2023-05-02T07:02:53.548Z,3.70
2023-05-02T07:06:20.122Z,3.60
2023-05-02T07:09:15.686Z,3.47
2023-05-02T07:12:06.947Z,3.53
2023-05-02T07:15:02.333Z,3.87
2023-05-02T07:18:13.686Z,3.43
2023-05-02T07:21:04.792Z,3.80
2023-05-02T07:23:56.335Z,4.10
2023-05-02T07:26:52.674Z,3.70
2023-05-02T07:33:57.748Z,3.90
2023-05-02T07:37:22.162Z,4.13
2023-05-02T07:40:39.229Z,4.23
2023-05-02T07:43:32.232Z,4.40
2023-05-02T07:46:22.209Z,4.03
2023-05-02T07:49:12.577Z,3.90
2023-05-02T07:53:36.895Z,3.70
2023-05-02T07:56:46.305Z,3.90
2023-05-02T08:00:00.816Z,4.23
2023-05-02T08:03:59.543Z,4.50
2023-05-02T08:07:24.595Z,4.37
2023-05-02T08:14:36.840Z,3.90
2023-05-02T08:17:35.555Z,4.20
2023-05-02T08:20:45.547Z,3.97
2023-05-02T08:28:31.696Z,5.73
2023-05-02T08:37:03.649Z,4.70
2023-05-02T08:43:36.712Z,4.67
2023-05-02T08:50:48.097Z,4.27
2023-05-02T08:53:51.375Z,4.20
2023-05-02T09:02:46.107Z,4.57
2023-05-02T09:05:10.779Z,5.03
2023-05-02T09:08:00.706Z,4.70
2023-05-02T09:10:50.659Z,4.67
2023-05-02T09:13:41.875Z,4.40
2023-05-02T09:17:30.798Z,5.10
2023-05-02T09:20:29.379Z,4.30
2023-05-02T09:23:41.014Z,4.30
2023-05-02T09:31:43.630Z,4.30
2023-05-02T09:38:08.346Z,4.57
2023-05-02T09:41:06.390Z,4.40
2023-05-02T09:44:43.385Z,4.37
2023-05-02T09:48:09.260Z,4.50
2023-05-02T09:52:15.380Z,4.20
2023-05-02T10:02:53.563Z,3.90
2023-05-02T10:06:40.691Z,3.93
2023-05-02T10:10:21.596Z,4.40
2023-05-02T10:13:11.837Z,4.13
2023-05-02T10:16:03.282Z,4.00
2023-05-02T10:22:35.700Z,4.10
2023-05-02T10:25:27.320Z,4.10
2023-05-02T10:28:39.120Z,3.60
2023-05-02T10:31:35.741Z,3.90
2023-05-02T10:38:02.770Z,3.80
2023-05-02T10:40:58.180Z,4.03
2023-05-02T10:44:30.553Z,3.97
2023-05-02T10:47:22.124Z,4.80
2023-05-02T10:50:12.752Z,4.30
2023-05-02T10:54:47.555Z,4.67
2023-05-02T11:01:45.909Z,4.97
2023-05-02T11:09:34.804Z,5.27
2023-05-02T11:12:53.019Z,5.73
2023-05-02T11:16:05.112Z,6.07
2023-05-02T11:19:07.408Z,5.80
2023-05-02T11:22:36.924Z,6.20
2023-05-02T11:25:44.634Z,5.70
2023-05-02T11:28:51.394Z,5.93
2023-05-02T11:31:59.322Z,6.33
2023-05-02T11:34:56.063Z,6.77
2023-05-02T11:37:56.748Z,6.43
2023-05-02T11:41:01.258Z,7.10
2023-05-02T11:45:01.044Z,7.50
2023-05-02T11:48:19.953Z,7.10
2023-05-02T11:51:25.632Z,7.03
2023-05-02T11:54:46.316Z,6.93
2023-05-02T11:58:04.813Z,8.20
2023-05-02T12:01:33.803Z,9.50
2023-05-02T12:04:28.680Z,9.10
2023-05-02T12:07:19.888Z,11.33
2023-05-02T12:10:11.065Z,12.73
2023-05-02T12:13:07.925Z,10.10
2023-05-02T12:15:59.075Z,9.50
2023-05-02T12:18:49.695Z,8.87
2023-05-02T12:21:39.519Z,8.80
2023-05-02T12:24:30.704Z,8.07
2023-05-02T12:27:20.306Z,7.83
2023-05-02T12:30:11.376Z,8.00
2023-05-02T12:33:01.899Z,7.67
2023-05-02T12:36:07.912Z,7.57
2023-05-02T12:39:00.135Z,6.33
2023-05-02T12:41:52.032Z,6.57
2023-05-02T12:48:25.399Z,6.37
2023-05-02T12:51:33.617Z,6.37
2023-05-02T12:54:23.634Z,6.40
2023-05-02T12:57:25.426Z,5.90
2023-05-02T13:00:18.110Z,5.37
2023-05-02T13:03:08.789Z,5.13
2023-05-02T13:05:58.259Z,5.33
2023-05-02T13:08:47.788Z,5.27
2023-05-02T13:11:37.868Z,4.17
2023-05-02T13:14:29.089Z,4.80
2023-05-02T13:17:19.134Z,4.53
2023-05-02T13:20:11.116Z,4.33
2023-05-02T13:23:00.939Z,4.60
2023-05-02T13:26:21.653Z,4.20
2023-05-02T13:29:13.170Z,4.33
2023-05-02T13:32:05.091Z,4.47
2023-05-02T13:34:57.116Z,4.90
2023-05-02T13:37:47.769Z,4.27
2023-05-02T13:40:41.323Z,4.60
2023-05-02T13:43:31.969Z,4.40
2023-05-02T13:46:54.713Z,4.40
2023-05-02T13:49:48.619Z,4.47
2023-05-02T13:52:39.819Z,4.40
2023-05-02T13:55:34.298Z,4.53
2023-05-02T13:58:32.180Z,4.47
2023-05-02T14:01:22.335Z,5.00
2023-05-02T14:04:16.271Z,4.30
2023-05-02T14:07:24.013Z,4.23
2023-05-02T14:10:15.632Z,4.93
2023-05-02T14:13:39.192Z,4.57
2023-05-02T14:16:45.060Z,5.43
2023-05-02T14:23:54.088Z,5.23
2023-05-02T14:26:45.468Z,4.83
2023-05-02T14:29:41.712Z,4.97
2023-05-02T14:32:35.738Z,5.10
2023-05-02T14:35:29.558Z,4.80
2023-05-02T14:38:25.517Z,4.53
2023-05-02T14:41:17.901Z,4.70
2023-05-02T14:44:07.772Z,4.47
2023-05-02T14:47:03.420Z,4.27
2023-05-02T14:50:00.763Z,4.30
2023-05-02T14:52:51.238Z,3.83
2023-05-02T14:55:41.976Z,4.30
2023-05-02T14:58:37.018Z,4.50
2023-05-02T15:01:40.482Z,4.43
2023-05-02T15:04:41.547Z,3.93
2023-05-02T15:07:43.031Z,4.00
2023-05-02T15:10:55.468Z,3.63
2023-05-02T15:13:54.833Z,3.90
2023-05-02T15:16:51.754Z,4.00
2023-05-02T15:19:43.901Z,3.83
2023-05-02T15:22:34.293Z,3.80
2023-05-02T15:25:25.231Z,4.30
2023-05-02T15:28:21.096Z,3.93
2023-05-02T15:31:12.094Z,4.03
2023-05-02T15:34:07.151Z,3.97
2023-05-02T15:36:58.028Z,3.63
2023-05-02T15:39:47.954Z,3.60
2023-05-02T15:42:38.743Z,3.70
2023-05-02T15:45:28.125Z,3.37
2023-05-02T15:48:21.076Z,3.43
2023-05-02T15:51:11.821Z,3.73
2023-05-02T15:54:02.950Z,3.60
2023-05-02T15:56:53.188Z,3.23
2023-05-02T15:59:46.813Z,3.50
2023-05-02T16:02:38.320Z,3.30
2023-05-02T16:05:31.749Z,3.30
2023-05-02T16:08:23.859Z,3.17
2023-05-02T16:11:14.398Z,3.33
2023-05-02T16:14:05.966Z,3.50
2023-05-02T16:17:02.398Z,3.10
2023-05-02T16:19:54.843Z,3.47
2023-05-02T16:22:50.281Z,3.20
2023-05-02T16:25:53.766Z,3.73
2023-05-02T16:28:46.239Z,3.17
2023-05-02T16:31:35.758Z,3.47
2023-05-02T16:34:25.854Z,3.57
2023-05-02T16:37:16.211Z,3.60
2023-05-02T16:40:08.521Z,3.33
2023-05-02T16:42:58.043Z,3.57
2023-05-02T16:45:47.946Z,4.20
2023-05-02T16:48:37.764Z,3.50
2023-05-02T16:51:27.473Z,3.77
2023-05-02T16:54:16.993Z,24.13
2023-05-02T16:57:11.253Z,4.30
2023-05-02T17:00:34.533Z,4.33
2023-05-02T17:03:24.618Z,4.60
2023-05-02T17:06:14.226Z,6.57
2023-05-02T17:09:08.042Z,5.13
2023-05-02T17:11:58.995Z,4.93
2023-05-02T17:14:50.062Z,5.90
2023-05-02T17:17:39.613Z,4.80
2023-05-02T17:20:29.111Z,6.90
2023-05-02T17:23:19.290Z,5.40
2023-05-02T17:26:15.501Z,6.23
2023-05-02T17:29:05.240Z,5.90
2023-05-02T17:31:57.347Z,5.90
2023-05-02T17:35:02.537Z,19.67
2023-05-02T17:37:52.698Z,31.47
2023-05-02T17:40:42.375Z,14.20
2023-05-02T17:43:32.448Z,6.13
2023-05-02T17:46:23.239Z,6.47
2023-05-02T17:49:15.907Z,11.97
2023-05-02T17:52:06.263Z,6.87
2023-05-02T17:54:57.518Z,6.20
2023-05-02T17:57:48.981Z,6.43
2023-05-02T18:00:39.941Z,6.20
2023-05-02T18:03:31.727Z,7.17
2023-05-02T18:06:23.720Z,6.03
2023-05-02T18:09:16.043Z,5.73
2023-05-02T18:12:07.047Z,5.67
2023-05-02T18:14:57.604Z,4.77
2023-05-02T18:17:49.404Z,5.20
2023-05-02T18:20:43.967Z,6.70
2023-05-02T18:23:36.349Z,5.33
2023-05-02T18:26:27.264Z,7.57
2023-05-02T18:29:20.076Z,4.43
2023-05-02T18:32:11.308Z,4.37
2023-05-02T18:35:05.986Z,5.83
2023-05-02T18:37:57.764Z,4.20
2023-05-02T18:40:49.936Z,4.90
2023-05-02T18:43:40.723Z,4.80
2023-05-02T18:46:31.339Z,5.10
2023-05-02T18:49:23.958Z,5.50
2023-05-02T18:52:14.358Z,5.93
2023-05-02T18:55:08.118Z,6.50
2023-05-02T18:58:04.606Z,5.93
2023-05-02T19:00:55.765Z,7.50
2023-05-02T19:03:50.528Z,7.30
2023-05-02T19:06:42.461Z,8.83
2023-05-02T19:09:33.353Z,7.87
2023-05-02T19:12:24.831Z,6.63
2023-05-02T19:15:17.624Z,5.67
2023-05-02T19:18:08.351Z,6.87
2023-05-02T19:20:59.393Z,5.80
2023-05-02T19:23:54.305Z,5.23
2023-05-02T19:26:49.752Z,5.23
2023-05-02T19:29:42.224Z,5.03
2023-05-02T19:32:38.614Z,4.33
2023-05-02T19:35:34.877Z,4.00
2023-05-02T19:38:27.500Z,4.50
2023-05-02T19:41:18.111Z,4.47
2023-05-02T19:44:10.674Z,4.53
2023-05-02T19:47:03.519Z,4.23
2023-05-02T19:49:54.582Z,4.20
2023-05-02T19:52:47.096Z,4.00
2023-05-02T19:55:39.269Z,3.93
2023-05-02T19:58:31.257Z,4.60
2023-05-02T20:01:22.518Z,4.40
2023-05-02T20:04:14.533Z,3.87
2023-05-02T20:07:07.842Z,3.20
2023-05-02T20:10:00.630Z,3.27
2023-05-02T20:12:51.532Z,2.70
2023-05-02T20:15:42.752Z,3.00
2023-05-02T20:18:33.558Z,3.20
2023-05-02T20:21:24.874Z,3.20
2023-05-02T20:24:17.516Z,3.50
2023-05-02T20:27:09.031Z,2.83
2023-05-02T20:30:01.406Z,3.20
2023-05-02T20:32:54.176Z,2.87
2023-05-02T20:35:45.689Z,2.43
2023-05-02T20:38:38.389Z,2.60
2023-05-02T20:41:32.578Z,2.40
2023-05-02T20:44:23.040Z,2.37
2023-05-02T20:47:13.441Z,2.00
2023-05-02T20:50:04.714Z,2.30
2023-05-02T20:52:57.404Z,2.00
2023-05-02T20:55:50.057Z,2.27
2023-05-02T20:58:43.760Z,1.90
2023-05-02T21:01:33.838Z,2.10
2023-05-02T21:04:23.312Z,2.03
2023-05-02T21:07:14.256Z,1.80
2023-05-02T21:10:04.014Z,1.90
2023-05-02T21:12:53.641Z,2.10
2023-05-02T21:15:44.716Z,2.00
2023-05-02T21:18:34.194Z,2.37
2023-05-02T21:21:24.894Z,1.90
2023-05-02T21:24:14.320Z,2.03
2023-05-02T21:27:04.107Z,2.20
2023-05-02T21:29:53.599Z,2.33
2023-05-02T21:32:44.940Z,2.10
2023-05-02T21:35:34.788Z,2.83
2023-05-02T21:38:24.933Z,2.80
2023-05-02T21:41:14.218Z,3.07
2023-05-02T21:44:04.163Z,2.77
2023-05-02T21:46:53.621Z,2.50
2023-05-02T21:49:46.112Z,2.70
2023-05-02T21:52:35.897Z,2.40
2023-05-02T21:55:25.584Z,2.50
2023-05-02T21:58:15.279Z,2.80
2023-05-02T22:01:05.316Z,2.40
2023-05-02T22:03:54.703Z,2.40
2023-05-02T22:06:50.328Z,2.50
2023-05-02T22:09:40.231Z,2.80
2023-05-02T22:12:30.240Z,2.83
2023-05-02T22:15:19.780Z,3.00
2023-05-02T22:18:10.735Z,3.13
2023-05-02T22:21:02.752Z,2.77
2023-05-02T22:23:53.686Z,2.40
2023-05-02T22:26:44.777Z,2.07
2023-05-02T22:29:34.257Z,2.20
2023-05-02T22:32:39.486Z,2.07
2023-05-02T22:35:40.456Z,2.23
2023-05-02T22:38:33.555Z,2.20
2023-05-02T22:41:24.718Z,2.00
2023-05-02T22:44:14.153Z,1.83
2023-05-02T22:47:05.747Z,1.63
2023-05-02T22:49:59.029Z,1.80
2023-05-02T22:52:49.562Z,1.63
2023-05-02T22:55:40.051Z,1.60
2023-05-02T22:58:30.970Z,1.60
2023-05-02T23:01:21.547Z,1.70
2023-05-02T23:04:11.834Z,1.70
2023-05-02T23:07:01.499Z,1.80
2023-05-02T23:09:50.988Z,1.90
2023-05-02T23:12:40.731Z,1.70
2023-05-02T23:15:31.994Z,1.60
2023-05-02T23:18:21.635Z,1.70
2023-05-02T23:21:17.229Z,1.50
2023-05-02T23:24:06.910Z,1.83
2023-05-02T23:26:56.744Z,1.50
2023-05-02T23:29:46.674Z,1.13
2023-05-02T23:32:38.110Z,1.50
2023-05-02T23:35:27.707Z,1.60
2023-05-02T23:38:17.553Z,1.50
2023-05-02T23:41:07.166Z,1.60
2023-05-02T23:43:56.629Z,1.60
2023-05-02T23:46:46.411Z,1.70
2023-05-02T23:49:39.236Z,1.67
2023-05-02T23:52:28.614Z,1.63
2023-05-02T23:55:21.247Z,1.70
2023-05-02T23:58:11.195Z,1.80
